| time (UTC) | temp F | wind direction | speed MPH | gust MPH | rain 1hr in | rain 24hr in | rain mn in | humidity % | barometer mb |
| 20260508050040 | 68 | 295 | 9.0 | 19.0 | 0.00 | 0.00 | 0.00 | 76 | 1008.3 |
| 20260508044537 | 69 | 295 | 10.0 | 23.0 | 0.00 | 0.00 | 0.00 | 75 | 1008.2 |
| 20260508043037 | 68 | 340 | 8.0 | 25.0 | 0.00 | 0.00 | 0.00 | 76 | 1007.9 |
| 20260508041537 | 69 | 264 | 12.0 | 26.0 | 0.00 | 0.00 | 0.00 | 76 | 1008.2 |
| 20260508040043 | 69 | 267 | 12.0 | 25.0 | 0.00 | 0.00 | 0.00 | 75 | 1008.4 |
| 20260508034539 | 69 | 287 | 14.0 | 29.0 | 0.00 | 0.00 | 0.00 | 75 | 1008.3 |
| 20260508033046 | 69 | 254 | 12.0 | 27.0 | 0.00 | 0.00 | 0.00 | 75 | 1008.3 |
| 20260508031539 | 69 | 270 | 13.0 | 24.0 | 0.00 | 0.00 | 0.00 | 74 | 1008.5 |
| 20260508030044 | 69 | 258 | 11.0 | 25.0 | 0.00 | 0.00 | 0.00 | 74 | 1008.8 |
| 20260508024540 | 69 | 229 | 13.0 | 25.0 | 0.00 | 0.00 | 0.00 | 74 | 1009.3 |
| 20260508023038 | 69 | 220 | 10.0 | 23.0 | 0.00 | 0.00 | 0.00 | 74 | 1009.5 |
| 20260508021545 | 69 | 251 | 10.0 | 25.0 | 0.00 | 0.00 | 0.00 | 74 | 1009.8 |
| 20260508020037 | 69 | 289 | 10.0 | 20.0 | 0.00 | 0.00 | 0.00 | 75 | 1010.0 |
| 20260508014539 | 69 | 283 | 9.0 | 20.0 | 0.00 | 0.00 | 0.00 | 75 | 1010.1 |
| 20260508013037 | 68 | 287 | 7.0 | 17.0 | 0.00 | 0.00 | 0.00 | 76 | 1010.2 |
| 20260508011546 | 68 | 273 | 8.0 | 15.0 | 0.00 | 0.00 | 0.00 | 76 | 1010.1 |
| 20260508010055 | 68 | 330 | 8.0 | 15.0 | 0.00 | 0.00 | 0.00 | 76 | 1010.1 |
| 20260508004542 | 68 | 264 | 4.0 | 12.0 | 0.00 | 0.00 | 0.00 | 77 | 1010.2 |
| 20260508003040 | 68 | 285 | 6.0 | 14.0 | 0.00 | 0.00 | 0.00 | 77 | 1009.9 |
| 20260508001537 | 68 | 314 | 6.0 | 12.0 | 0.00 | 0.00 | 0.00 | 77 | 1010.0 |
| 20260508000044 | 68 | 311 | 3.0 | 11.0 | 0.00 | 0.00 | 0.00 | 77 | 1009.9 |
| 20260507234537 | 68 | 27 | 3.0 | 8.0 | 0.00 | 0.00 | 0.00 | 77 | 1009.9 |
| 20260507233044 | 68 | 293 | 3.0 | 10.0 | 0.00 | 0.00 | 0.00 | 78 | 1010.0 |
| 20260507231541 | 69 | 291 | 3.0 | 9.0 | 0.00 | 0.00 | 0.00 | 77 | 1010.2 |
| 20260507230054 | 69 | 336 | 3.0 | 10.0 | 0.00 | 0.00 | 0.00 | 77 | 1010.2 |
| 20260507224537 | 69 | 300 | 2.0 | 10.0 | 0.00 | 0.00 | 0.00 | 77 | 1010.4 |
| 20260507223111 | 69 | 258 | 1.0 | 8.0 | 0.00 | 0.00 | 0.00 | 76 | 1010.4 |
| 20260507221540 | 69 | 297 | 4.0 | 10.0 | 0.00 | 0.00 | 0.00 | 76 | 1010.6 |
| 20260507220039 | 70 | 309 | 2.0 | 10.0 | 0.00 | 0.00 | 0.00 | 76 | 1010.4 |
| 20260507214544 | 69 | 316 | 2.0 | 7.0 | 0.00 | 0.00 | 0.00 | 76 | 1010.4 |
| 20260507213037 | 70 | 308 | 2.0 | 12.0 | 0.00 | 0.00 | 0.00 | 76 | 1010.5 |
| 20260507211542 | 70 | 297 | 3.0 | 8.0 | 0.00 | 0.00 | 0.00 | 75 | 1010.5 |
| 20260507210046 | 70 | 316 | 2.0 | 8.0 | 0.00 | 0.00 | 0.00 | 75 | 1010.4 |
| 20260507204542 | 71 | 274 | 1.0 | 9.0 | 0.00 | 0.00 | 0.00 | 74 | 1010.4 |
| 20260507203041 | 71 | 270 | 3.0 | 9.0 | 0.00 | 0.00 | 0.00 | 72 | 1010.7 |
| 20260507201541 | 72 | 279 | 4.0 | 11.0 | 0.00 | 0.00 | 0.00 | 70 | 1010.6 |
| 20260507200054 | 74 | 0 | 5.0 | 11.0 | 0.00 | 0.00 | 0.00 | 68 | 1010.4 |
| 20260507194537 | 74 | 297 | 6.0 | 13.0 | 0.00 | 0.00 | 0.00 | 68 | 1010.6 |
| 20260507193045 | 73 | 244 | 8.0 | 18.0 | 0.00 | 0.00 | 0.00 | 67 | 1010.4 |
| 20260507191537 | 74 | 297 | 5.0 | 17.0 | 0.00 | 0.00 | 0.00 | 68 | 1010.4 |
| 20260507190049 | 73 | 305 | 5.0 | 14.0 | 0.00 | 0.00 | 0.00 | 71 | 1010.2 |
| 20260507184539 | 72 | 261 | 6.0 | 21.0 | 0.00 | 0.00 | 0.00 | 70 | 1010.2 |
| 20260507183040 | 72 | 253 | 7.0 | 16.0 | 0.00 | 0.00 | 0.00 | 70 | 1010.2 |
| 20260507181538 | 73 | 282 | 8.0 | 17.0 | 0.00 | 0.00 | 0.00 | 69 | 1010.2 |
| 20260507180036 | 73 | 287 | 7.0 | 18.0 | 0.00 | 0.00 | 0.00 | 68 | 1010.1 |
| 20260507174553 | 74 | 247 | 9.0 | 24.0 | 0.00 | 0.00 | 0.00 | 66 | 1010.4 |
| 20260507173040 | 75 | 249 | 13.0 | 27.0 | 0.00 | 0.00 | 0.00 | 65 | 1010.4 |
| 20260507171542 | 76 | 237 | 12.0 | 25.0 | 0.00 | 0.00 | 0.00 | 66 | 1010.4 |
| 20260507170044 | 76 | 296 | 14.0 | 22.0 | 0.00 | 0.00 | 0.00 | 67 | 1010.8 |
| 20260507164537 | 76 | 301 | 10.0 | 22.0 | 0.00 | 0.00 | 0.00 | 67 | 1011.1 |
| 20260507163037 | 75 | 345 | 15.0 | 30.0 | 0.00 | 0.00 | 0.00 | 65 | 1011.2 |
| 20260507161551 | 75 | 268 | 13.0 | 23.0 | 0.00 | 0.00 | 0.00 | 65 | 1011.5 |
| 20260507160042 | 75 | 253 | 13.0 | 23.0 | 0.00 | 0.00 | 0.00 | 65 | 1011.6 |
| 20260507154543 | 75 | 330 | 12.0 | 23.0 | 0.00 | 0.00 | 0.00 | 67 | 1011.9 |
| 20260507153042 | 75 | 245 | 11.0 | 26.0 | 0.00 | 0.00 | 0.00 | 67 | 1012.5 |
| 20260507151537 | 75 | 287 | 11.0 | 20.0 | 0.00 | 0.00 | 0.00 | 69 | 1012.7 |
| 20260507150043 | 74 | 301 | 9.0 | 20.0 | 0.00 | 0.00 | 0.00 | 72 | 1012.9 |
| 20260507144539 | 71 | 272 | 7.0 | 16.0 | 0.00 | 0.00 | 0.00 | 77 | 1013.4 |
| 20260507143038 | 71 | 262 | 11.0 | 24.0 | 0.00 | 0.00 | 0.00 | 76 | 1014.0 |
| 20260507141537 | 71 | 249 | 7.0 | 21.0 | 0.00 | 0.00 | 0.00 | 78 | 1014.2 |
| 20260507140038 | 70 | 248 | 13.0 | 23.0 | 0.00 | 0.00 | 0.00 | 78 | 1014.6 |
| 20260507134535 | 71 | 295 | 7.0 | 15.0 | 0.00 | 0.00 | 0.00 | 77 | 1014.9 |
| 20260507133039 | 69 | 284 | 9.0 | 14.0 | 0.00 | 0.00 | 0.00 | 79 | 1015.2 |
| 20260507131538 | 69 | 301 | 7.0 | 14.0 | 0.00 | 0.00 | 0.00 | 80 | 1015.2 |
| 20260507130055 | 70 | 299 | 5.0 | 14.0 | 0.00 | 0.00 | 0.00 | 80 | 1015.5 |
| 20260507124536 | 68 | 287 | 7.0 | 15.0 | 0.00 | 0.00 | 0.00 | 82 | 1015.4 |
| 20260507123041 | 68 | 260 | 7.0 | 13.0 | 0.00 | 0.00 | 0.00 | 84 | 1015.5 |
| 20260507121543 | 67 | 301 | 7.0 | 13.0 | 0.00 | 0.00 | 0.00 | 85 | 1015.6 |
| 20260507120039 | 67 | 302 | 6.0 | 14.0 | 0.00 | 0.00 | 0.00 | 85 | 1015.7 |
| 20260507114539 | 66 | 288 | 4.0 | 11.0 | 0.00 | 0.00 | 0.00 | 87 | 1015.9 |
| 20260507113037 | 65 | 0 | 5.0 | 8.0 | 0.00 | 0.00 | 0.00 | 88 | 1015.9 |
| 20260507111536 | 65 | 341 | 3.0 | 8.0 | 0.00 | 0.00 | 0.00 | 88 | 1015.9 |
| 20260507110043 | 65 | 291 | 2.0 | 7.0 | 0.00 | 0.00 | 0.00 | 88 | 1015.9 |
| 20260507104537 | 64 | 347 | 1.0 | 7.0 | 0.00 | 0.00 | 0.00 | 89 | 1015.8 |
| 20260507103036 | 64 | 0 | 1.0 | 4.0 | 0.00 | 0.00 | 0.00 | 89 | 1015.8 |
| 20260507101542 | 64 | 309 | 1.0 | 5.0 | 0.00 | 0.00 | 0.00 | 90 | 1015.8 |
| 20260507100047 | 64 | 0 | 0.0 | 2.0 | 0.00 | 0.00 | 0.00 | 89 | 1015.8 |
| 20260507094539 | 64 | 0 | 0.0 | 4.0 | 0.00 | 0.00 | 0.00 | 89 | 1015.9 |
| 20260507093039 | 63 | 78 | 0.0 | 6.0 | 0.00 | 0.00 | 0.00 | 89 | 1015.8 |
| 20260507091537 | 63 | 85 | 1.0 | 3.0 | 0.00 | 0.00 | 0.00 | 88 | 1015.7 |
| 20260507090036 | 63 | 39 | 0.0 | 1.0 | 0.00 | 0.00 | 0.00 | 89 | 1015.9 |
| 20260507084544 | 63 | 0 | 0.0 | 4.0 | 0.00 | 0.00 | 0.00 | 89 | 1016.0 |
| 20260507083051 | 63 | 77 | 1.0 | 5.0 | 0.00 | 0.00 | 0.00 | 89 | 1016.0 |
| 20260507081538 | 62 | 62 | 2.0 | 4.0 | 0.00 | 0.00 | 0.00 | 90 | 1016.1 |
| 20260507080038 | 62 | 0 | 0.0 | 3.0 | 0.00 | 0.00 | 0.00 | 90 | 1016.2 |
| 20260507074537 | 62 | 0 | 0.0 | 2.0 | 0.00 | 0.00 | 0.00 | 90 | 1016.3 |
| 20260507073048 | 63 | 0 | 0.0 | 3.0 | 0.00 | 0.00 | 0.00 | 90 | 1016.5 |
| 20260507071539 | 63 | 0 | 0.0 | 6.0 | 0.00 | 0.00 | 0.00 | 89 | 1016.6 |
| 20260507070041 | 63 | 98 | 1.0 | 4.0 | 0.00 | 0.00 | 0.00 | 89 | 1016.7 |
| 20260507064541 | 63 | 131 | 1.0 | 4.0 | 0.00 | 0.00 | 0.00 | 88 | 1016.8 |
| 20260507063041 | 63 | 85 | 0.0 | 6.0 | 0.00 | 0.00 | 0.00 | 88 | 1017.0 |
| 20260507061544 | 64 | 95 | 1.0 | 8.0 | 0.00 | 0.00 | 0.00 | 87 | 1017.2 |
| 20260507060041 | 64 | 31 | 0.0 | 4.0 | 0.00 | 0.00 | 0.00 | 87 | 1017.4 |
| 20260507054541 | 64 | 97 | 1.0 | 6.0 | 0.00 | 0.00 | 0.00 | 86 | 1017.6 |
| 20260507053037 | 64 | 0 | 0.0 | 3.0 | 0.00 | 0.00 | 0.00 | 85 | 1017.7 |
| 20260507051542 | 64 | 0 | 0.0 | 0.0 | 0.00 | 0.00 | 0.00 | 85 | 1018.0 |